Terminal Aerodrome Forecast
Issued by NWS

Home | Current Version | Previous Version | Text Only | Print | Product List | Glossary Off
Versions: 1 2 3 4 5 6 7 8 9 10 11 12 13 14 15 16 17 18 19 20 21 22 23 24 25 26 27 28 29 30 31

000
FTUS43 KPAH 080528
TAFOWB
TAF
KOWB 080528Z 0806/0906 29008KT P6SM SCT050 BKN100
      TEMPO 0806/0807 6SM -SHRA
     FM081300 29010KT P6SM OVC025
     FM081600 29012G20KT 6SM -SHSN OVC025
     FM081900 28014G22KT 5SM -SHSN OVC015=

USA.gov is the U.S. government's official web portal to all federal, state and local government web resources and services.